La Grange, TX (78945)

11:59 PM CST on December 05, 2016 (GMT -0600)
Horton Street | | Change Station

Elev 344 ft 29.92 °N, 96.87 °W | Updated 5 seconds ago

Clear
Clear
51.6 °F
Feels Like 51.6 °F
N
0.0
Wind Variable Wind from SW
Gusts 0.0 mph

Today
High -- | Low -- °F
--% Chance of Precip.
Yesterday
High -- | Low -- °F
Precip. -- in
Pressure 29.80 in
Visibility 7.0 miles
Clouds Clear
Dew Point 51 °F
Humidity 99%
Rainfall 0.79 in
Snow Depth Not available.
7:09 AM 5:27 PM
Waxing Crescent, 38% visible
METAR K3T5 060555Z AUTO 21003KT 7SM CLR 10/10 A2980 RMK AO2 60001 T01030101 10115 20102 401220100
Pressure 29.80 in
Visibility 7.0 miles
Clouds Clear
Dew Point 51 °F
Humidity 99%
Rainfall 0.79 in
Snow Depth Not available.
7:09 AM 5:27 PM
Waxing Crescent, 38% visible
METAR K3T5 060555Z AUTO 21003KT 7SM CLR 10/10 A2980 RMK AO2 60001 T01030101 10115 20102 401220100

10-Day Weather Forecast

Almanac

Astronomy

Dec. 05, 2016 Rise Set
Actual Time
Civil Twilight
Nautical Twilight
Astronomical Twilight
Moon
Length of Visible Light
Length of Day
Tomorrow will be .
, % of the Moon is Illuminated

Today's Extremes

State Highs State Lows

Community

WunderPhotos

Upload Photos

1,955,931 photos uploaded!

WunderBlog® & News

Nearby

Air Quality

  Air Quality AQ Index Pollutant
Not available.

Snow Depth

Station Depth Elevation

Earthquake Activity

City Distance Mag. Time & Date
Minimum magnitude displayed is 2.5.

Coastal Water Temperatures

Place Temperature

Stations

Nearby Weather Stations

Station Location Temp. Windchill Dew Point Humidity Wind Precip. Elev Updated Type
                   

Watches & Warnings

There are currently no watches in effect.